This is the latest recevied weather packets stored in our database for station/object KC5DP. If no packets are shown the sender has not sent any weather packets the latest 1 day(s).
| Time | Temp. | Humidity | Pressure | Rain* | Wind** | Luminosity | Snow |
|---|---|---|---|---|---|---|---|
| 1778026553 | 25.56° C | 80% | 1009.9 hPa | 0 mm | 0 m/s | 13 W/m² | - |
| 1778026250 | 25.56° C | 80% | 1009.9 hPa | 0 mm | 0.45 m/s, 130° | 20 W/m² | - |
| 1778025296 | 25.56° C | 79% | 1009.8 hPa | 0 mm | 0.89 m/s, 133° | 31 W/m² | - |
| 1778024992 | 25.56° C | 79% | 1009.8 hPa | 0 mm | 0.89 m/s, 133° | 31 W/m² | - |
| 1778024690 | 25.56° C | 79% | 1009.8 hPa | 0 mm | 0 m/s | 44 W/m² | - |
| 1778024386 | 25.56° C | 78% | 1009.8 hPa | 0 mm | 1.34 m/s, 113° | 37 W/m² | - |
| 1778024084 | 26.11° C | 78% | 1009.8 hPa | 0 mm | 0.45 m/s, 108° | 13 W/m² | - |
| 1778023781 | 26.11° C | 78% | 1009.9 hPa | 0 mm | 0.89 m/s, 84° | 34 W/m² | - |
| 1778023479 | 26.11° C | 77% | 1009.9 hPa | 0 mm | 0 m/s | 67 W/m² | - |
| 1778023176 | 26.11° C | 77% | 1009.8 hPa | 0 mm | 0.45 m/s, 156° | 81 W/m² | - |
| 1778022873 | 26.11° C | 78% | 1009.7 hPa | 0 mm | 0 m/s | 53 W/m² | - |
| 1778022571 | 26.11° C | 77% | 1009.9 hPa | 0 mm | 0.45 m/s, 108° | 61 W/m² | - |
| 1778022269 | 26.11° C | 77% | 1009.9 hPa | 0 mm | 0 m/s | 53 W/m² | - |
| 1778021965 | 26.11° C | 76% | 1009.6 hPa | 0 mm | 0 m/s | 65 W/m² | - |
| 1778021662 | 26.11° C | 77% | 1009.9 hPa | 0 mm | 0 m/s | 49 W/m² | - |
| 1778021357 | 26.11° C | 76% | 1009.9 hPa | 0 mm | 0.45 m/s, 93° | 40 W/m² | - |
| 1778021055 | 26.67° C | 74% | 1009.7 hPa | 0 mm | 0.45 m/s, 82° | 26 W/m² | - |
| 1778020752 | 26.67° C | 74% | 1009.9 hPa | 0 mm | 0.45 m/s, 92° | 55 W/m² | - |
| 1778020449 | 26.67° C | 73% | 1009.9 hPa | 0 mm | 0.89 m/s, 107° | 78 W/m² | - |
| 1778020145 | 26.67° C | 73% | 1010 hPa | 0 mm | 0.45 m/s, 67° | 99 W/m² | - |
| 1778019841 | 26.67° C | 72% | 1009.8 hPa | 0 mm | 0 m/s | 93 W/m² | - |
| 1778019538 | 27.22° C | 72% | 1009.9 hPa | 0 mm | 1.79 m/s, 57° | 105 W/m² | - |
| 1778019235 | 27.22° C | 72% | 1009.8 hPa | 0 mm | 0 m/s | 101 W/m² | - |
| 1778018874 | 26.67° C | 73% | 1009.9 hPa | 0 mm | 0.45 m/s, 325° | 93 W/m² | - |
| 1778018571 | 26.67° C | 73% | 1009.9 hPa | 0 mm | 0.45 m/s, 325° | 93 W/m² | - |
* Rain latest hour (hover to see other rain measurements)
** Current wind speed in m/s (hover to see current wind gust speed)